Terminal Aerodrome Forecast
Issued by NWS State College, PA

Home | Current Version | Previous Version | Text Only | Print | Product List | Glossary On
Versions: 1 2 3 4 5 6 7 8 9 10 11 12 13 14 15 16 17 18 19 20 21 22 23 24 25 26 27 28 29 30 31 32 33 34 35 36 37 38 39 40 41 42 43 44 45 46 47 48 49 50
000
FTUS41 KCTP 180120 AAD
TAFMDT
TAF AMD
KMDT 180120Z 1801/1824 11005KT 4SM -SN OVC008
     FM180400 18006KT 3SM -SN BR OVC007
     FM180700 28008KT P6SM -SHSN OVC035
     FM181000 30010G20KT P6SM SCT030=

USA.gov is the U.S. government's official web portal to all federal, state and local government web resources and services.